Kezdőlap
METAR-TAF:

METAR-TAF

Repülőterek :

Xi'an, Kína

földrajzi szélesség: 34-26N, földrajzi hosszúság: 108-45E, magasság: 479 m

Jelenlegi meteorológiai megfigyelések

A jelentés 16 perccel ezelõtt készült, 17:00 UTC
Nyugat-délnyugati szél 4 kt
Hőmérséklet 23°C
Páratartalom 83%
Légköri nyomás 1010 hPa
Látótávolság: 8000 m

METAR: ZLXY 171700Z 25002MPS 8000 NSC 23/20 Q1010 NOSIG

Idő: 01:16 (17:16 UTC)

Előrejelzés

A jelentés 8 órával és 10 perccel ezelõtt készült, 09:06 UTC
Az előrejelzés 17-én 12 óra UTC és 18-én 12 óra UTC között érvényes
Nyugat-délnyugati szél 6 kt
Látótávolság: 6000 m
Kevés felhő 4000 lábon

TAF: ZLXY 170906Z 1712/1812 24003MPS 6000 FEW040 TX36/1808Z TN23/1721Z

Meteorológiai megfigyelések és előrejelzések több, mint 4000 repülőtéren (METAR és TAF jelentéseket).

A térképen piros és sárga pontok jelzik az elérhető meteorológiai állomásokat.

Mozgassa az egeret a pont fölött, hogy megjelenjen az állomás neve.

Azután kattintson az időjárási megfigyelések és előrejelzések megtekintéséhez.

A térkép megváltoztatása: kattintson a fekete keresztel jelölt zöld gombra ráközelítéshez, a vonallal jelölt zöld gombra távolításhoz, vagy a zöld nyilakra a szomszédos térképek eléréséhez.


METAR-TAF: